sensor_id;sensor_type;location;lat;lon;timestamp;temperature;humidity
19279;DHT22;9773;47.062;15.446;2023-05-02T00:00:08;13.70;99.90
19279;DHT22;9773;47.062;15.446;2023-05-02T00:02:34;13.70;99.90
19279;DHT22;9773;47.062;15.446;2023-05-02T00:05:00;13.70;99.90
19279;DHT22;9773;47.062;15.446;2023-05-02T00:07:27;13.70;99.90
19279;DHT22;9773;47.062;15.446;2023-05-02T00:09:52;13.70;99.90
19279;DHT22;9773;47.062;15.446;2023-05-02T00:12:18;13.70;99.90
19279;DHT22;9773;47.062;15.446;2023-05-02T00:14:44;13.70;99.90
19279;DHT22;9773;47.062;15.446;2023-05-02T00:17:19;13.60;99.90
19279;DHT22;9773;47.062;15.446;2023-05-02T00:19:45;13.60;99.90
19279;DHT22;9773;47.062;15.446;2023-05-02T00:22:11;13.50;99.90
19279;DHT22;9773;47.062;15.446;2023-05-02T00:24:37;13.50;99.90
19279;DHT22;9773;47.062;15.446;2023-05-02T00:27:03;13.50;99.90
19279;DHT22;9773;47.062;15.446;2023-05-02T00:29:29;13.50;99.90
19279;DHT22;9773;47.062;15.446;2023-05-02T00:31:55;13.50;99.90
19279;DHT22;9773;47.062;15.446;2023-05-02T00:34:23;13.50;99.90
19279;DHT22;9773;47.062;15.446;2023-05-02T00:36:49;13.50;99.90
19279;DHT22;9773;47.062;15.446;2023-05-02T00:39:14;13.50;99.90
19279;DHT22;9773;47.062;15.446;2023-05-02T00:41:40;13.50;99.90
19279;DHT22;9773;47.062;15.446;2023-05-02T00:44:06;13.40;99.90
19279;DHT22;9773;47.062;15.446;2023-05-02T00:46:33;13.40;99.90
19279;DHT22;9773;47.062;15.446;2023-05-02T00:49:00;13.30;99.90
19279;DHT22;9773;47.062;15.446;2023-05-02T00:51:26;13.30;99.90
19279;DHT22;9773;47.062;15.446;2023-05-02T00:53:51;13.30;99.90
19279;DHT22;9773;47.062;15.446;2023-05-02T00:56:18;13.30;99.90
19279;DHT22;9773;47.062;15.446;2023-05-02T00:58:44;13.30;99.90
19279;DHT22;9773;47.062;15.446;2023-05-02T01:05:09;13.20;99.90
19279;DHT22;9773;47.062;15.446;2023-05-02T01:10:13;13.30;99.90
19279;DHT22;9773;47.062;15.446;2023-05-02T01:12:50;13.30;99.90
19279;DHT22;9773;47.062;15.446;2023-05-02T01:15:21;13.20;99.90
19279;DHT22;9773;47.062;15.446;2023-05-02T01:17:48;13.20;99.90
19279;DHT22;9773;47.062;15.446;2023-05-02T01:20:18;13.20;99.90
19279;DHT22;9773;47.062;15.446;2023-05-02T01:22:45;13.10;99.90
19279;DHT22;9773;47.062;15.446;2023-05-02T01:28:26;13.20;99.90
19279;DHT22;9773;47.062;15.446;2023-05-02T01:30:54;13.20;99.90
19279;DHT22;9773;47.062;15.446;2023-05-02T01:33:23;13.20;99.90
19279;DHT22;9773;47.062;15.446;2023-05-02T01:35:50;13.20;99.90
19279;DHT22;9773;47.062;15.446;2023-05-02T01:38:18;13.30;99.90
19279;DHT22;9773;47.062;15.446;2023-05-02T01:40:44;13.30;99.90
19279;DHT22;9773;47.062;15.446;2023-05-02T01:43:12;13.20;99.90
19279;DHT22;9773;47.062;15.446;2023-05-02T01:45:40;13.30;99.90
19279;DHT22;9773;47.062;15.446;2023-05-02T01:48:08;13.30;99.90
19279;DHT22;9773;47.062;15.446;2023-05-02T01:50:36;13.30;99.90
19279;DHT22;9773;47.062;15.446;2023-05-02T01:53:04;13.30;99.90
19279;DHT22;9773;47.062;15.446;2023-05-02T01:55:32;13.30;99.90
19279;DHT22;9773;47.062;15.446;2023-05-02T01:58:01;13.30;99.90
19279;DHT22;9773;47.062;15.446;2023-05-02T02:00:28;13.40;99.90
19279;DHT22;9773;47.062;15.446;2023-05-02T02:02:56;13.40;99.90
19279;DHT22;9773;47.062;15.446;2023-05-02T02:05:23;13.40;99.90
19279;DHT22;9773;47.062;15.446;2023-05-02T02:07:50;13.40;99.90
19279;DHT22;9773;47.062;15.446;2023-05-02T02:10:16;13.40;99.90
19279;DHT22;9773;47.062;15.446;2023-05-02T02:12:51;13.40;99.90
19279;DHT22;9773;47.062;15.446;2023-05-02T02:15:29;13.40;99.90
19279;DHT22;9773;47.062;15.446;2023-05-02T02:18:09;13.40;99.90
19279;DHT22;9773;47.062;15.446;2023-05-02T02:20:37;13.40;99.90
19279;DHT22;9773;47.062;15.446;2023-05-02T02:23:06;13.40;99.90
19279;DHT22;9773;47.062;15.446;2023-05-02T02:25:33;13.40;99.90
19279;DHT22;9773;47.062;15.446;2023-05-02T02:28:00;13.30;99.90
19279;DHT22;9773;47.062;15.446;2023-05-02T02:30:26;13.40;99.90
19279;DHT22;9773;47.062;15.446;2023-05-02T02:32:52;13.30;99.90
19279;DHT22;9773;47.062;15.446;2023-05-02T02:35:18;13.40;99.90
19279;DHT22;9773;47.062;15.446;2023-05-02T02:38:22;13.40;99.90
19279;DHT22;9773;47.062;15.446;2023-05-02T02:40:59;13.40;99.90
19279;DHT22;9773;47.062;15.446;2023-05-02T02:43:43;13.40;99.90
19279;DHT22;9773;47.062;15.446;2023-05-02T02:46:59;13.40;99.90
19279;DHT22;9773;47.062;15.446;2023-05-02T02:51:55;13.40;99.90
19279;DHT22;9773;47.062;15.446;2023-05-02T02:59:45;13.40;99.90
19279;DHT22;9773;47.062;15.446;2023-05-02T03:02:14;13.40;99.90
19279;DHT22;9773;47.062;15.446;2023-05-02T03:04:43;13.40;99.90
19279;DHT22;9773;47.062;15.446;2023-05-02T03:07:10;13.40;99.90
19279;DHT22;9773;47.062;15.446;2023-05-02T03:09:43;13.50;99.90
19279;DHT22;9773;47.062;15.446;2023-05-02T03:12:09;13.50;99.90
19279;DHT22;9773;47.062;15.446;2023-05-02T03:14:35;13.50;99.90
19279;DHT22;9773;47.062;15.446;2023-05-02T03:17:02;13.60;99.90
19279;DHT22;9773;47.062;15.446;2023-05-02T03:19:28;13.60;99.90
19279;DHT22;9773;47.062;15.446;2023-05-02T03:21:54;13.60;99.90
19279;DHT22;9773;47.062;15.446;2023-05-02T03:24:20;13.60;99.90
19279;DHT22;9773;47.062;15.446;2023-05-02T03:26:46;13.60;99.90
19279;DHT22;9773;47.062;15.446;2023-05-02T03:29:13;13.60;99.90
19279;DHT22;9773;47.062;15.446;2023-05-02T03:31:38;13.60;99.90
19279;DHT22;9773;47.062;15.446;2023-05-02T03:34:04;13.60;99.90
19279;DHT22;9773;47.062;15.446;2023-05-02T03:36:30;13.60;99.90
19279;DHT22;9773;47.062;15.446;2023-05-02T03:38:56;13.60;99.90
19279;DHT22;9773;47.062;15.446;2023-05-02T03:41:21;13.50;99.90
19279;DHT22;9773;47.062;15.446;2023-05-02T03:43:49;13.50;99.90
19279;DHT22;9773;47.062;15.446;2023-05-02T03:46:15;13.40;99.90
19279;DHT22;9773;47.062;15.446;2023-05-02T03:48:41;13.40;99.90
19279;DHT22;9773;47.062;15.446;2023-05-02T03:51:07;13.40;99.90
19279;DHT22;9773;47.062;15.446;2023-05-02T03:53:34;13.40;99.90
19279;DHT22;9773;47.062;15.446;2023-05-02T03:56:00;13.40;99.90
19279;DHT22;9773;47.062;15.446;2023-05-02T03:58:26;13.30;99.90
19279;DHT22;9773;47.062;15.446;2023-05-02T04:00:52;13.30;99.90
19279;DHT22;9773;47.062;15.446;2023-05-02T04:03:19;13.30;99.90
19279;DHT22;9773;47.062;15.446;2023-05-02T04:05:45;13.30;99.90
19279;DHT22;9773;47.062;15.446;2023-05-02T04:08:11;13.30;99.90
19279;DHT22;9773;47.062;15.446;2023-05-02T04:10:38;13.20;99.90
19279;DHT22;9773;47.062;15.446;2023-05-02T04:13:04;13.20;99.90
19279;DHT22;9773;47.062;15.446;2023-05-02T04:15:32;13.10;99.90
19279;DHT22;9773;47.062;15.446;2023-05-02T04:17:58;13.10;99.90
19279;DHT22;9773;47.062;15.446;2023-05-02T04:20:24;13.10;99.90
19279;DHT22;9773;47.062;15.446;2023-05-02T04:22:52;12.90;99.90
19279;DHT22;9773;47.062;15.446;2023-05-02T04:25:18;13.00;99.90
19279;DHT22;9773;47.062;15.446;2023-05-02T04:27:44;13.00;99.90
19279;DHT22;9773;47.062;15.446;2023-05-02T04:30:11;13.00;99.90
19279;DHT22;9773;47.062;15.446;2023-05-02T04:32:37;12.90;99.90
19279;DHT22;9773;47.062;15.446;2023-05-02T04:35:05;13.00;99.90
19279;DHT22;9773;47.062;15.446;2023-05-02T04:37:31;13.00;99.90
19279;DHT22;9773;47.062;15.446;2023-05-02T04:39:57;13.00;99.90
19279;DHT22;9773;47.062;15.446;2023-05-02T04:42:23;13.00;99.90
19279;DHT22;9773;47.062;15.446;2023-05-02T04:44:49;13.00;99.90
19279;DHT22;9773;47.062;15.446;2023-05-02T04:47:15;13.00;99.90
19279;DHT22;9773;47.062;15.446;2023-05-02T04:49:42;13.10;99.90
19279;DHT22;9773;47.062;15.446;2023-05-02T04:52:08;13.10;99.90
19279;DHT22;9773;47.062;15.446;2023-05-02T04:54:35;13.10;99.90
19279;DHT22;9773;47.062;15.446;2023-05-02T04:57:01;13.10;99.90
19279;DHT22;9773;47.062;15.446;2023-05-02T04:59:30;13.00;99.90
19279;DHT22;9773;47.062;15.446;2023-05-02T05:01:56;13.10;99.90
19279;DHT22;9773;47.062;15.446;2023-05-02T05:04:23;13.10;99.90
19279;DHT22;9773;47.062;15.446;2023-05-02T05:06:48;13.00;99.90
19279;DHT22;9773;47.062;15.446;2023-05-02T05:09:14;13.00;99.90
19279;DHT22;9773;47.062;15.446;2023-05-02T05:11:40;13.00;99.90
19279;DHT22;9773;47.062;15.446;2023-05-02T05:14:08;13.00;99.90
19279;DHT22;9773;47.062;15.446;2023-05-02T05:16:34;13.00;99.90
19279;DHT22;9773;47.062;15.446;2023-05-02T05:19:00;13.00;99.90
19279;DHT22;9773;47.062;15.446;2023-05-02T05:21:26;13.00;99.90
19279;DHT22;9773;47.062;15.446;2023-05-02T05:23:51;13.00;99.90
19279;DHT22;9773;47.062;15.446;2023-05-02T05:26:20;13.10;99.90
19279;DHT22;9773;47.062;15.446;2023-05-02T05:28:46;13.10;99.90
19279;DHT22;9773;47.062;15.446;2023-05-02T05:31:13;13.10;99.90
19279;DHT22;9773;47.062;15.446;2023-05-02T05:33:42;13.10;99.90
19279;DHT22;9773;47.062;15.446;2023-05-02T05:36:10;13.20;99.90
19279;DHT22;9773;47.062;15.446;2023-05-02T05:38:36;13.20;99.90
19279;DHT22;9773;47.062;15.446;2023-05-02T05:41:03;13.20;99.90
19279;DHT22;9773;47.062;15.446;2023-05-02T05:43:35;13.30;99.90
19279;DHT22;9773;47.062;15.446;2023-05-02T05:46:02;13.30;99.90
19279;DHT22;9773;47.062;15.446;2023-05-02T05:48:27;13.40;99.90
19279;DHT22;9773;47.062;15.446;2023-05-02T05:50:53;13.40;99.90
19279;DHT22;9773;47.062;15.446;2023-05-02T05:53:25;13.40;99.90
19279;DHT22;9773;47.062;15.446;2023-05-02T05:55:50;13.40;99.90
19279;DHT22;9773;47.062;15.446;2023-05-02T05:58:16;13.40;99.90
19279;DHT22;9773;47.062;15.446;2023-05-02T06:00:42;13.40;99.90
19279;DHT22;9773;47.062;15.446;2023-05-02T06:03:08;13.40;99.90
19279;DHT22;9773;47.062;15.446;2023-05-02T06:05:34;13.40;99.90
19279;DHT22;9773;47.062;15.446;2023-05-02T06:08:00;13.10;99.90
19279;DHT22;9773;47.062;15.446;2023-05-02T06:10:26;13.40;99.90
19279;DHT22;9773;47.062;15.446;2023-05-02T06:12:51;13.40;99.90
19279;DHT22;9773;47.062;15.446;2023-05-02T06:15:17;13.40;99.90
19279;DHT22;9773;47.062;15.446;2023-05-02T06:17:43;13.50;99.90
19279;DHT22;9773;47.062;15.446;2023-05-02T06:20:09;13.50;99.90
19279;DHT22;9773;47.062;15.446;2023-05-02T06:22:37;13.40;99.90
19279;DHT22;9773;47.062;15.446;2023-05-02T06:25:04;13.40;99.90
19279;DHT22;9773;47.062;15.446;2023-05-02T06:27:30;13.40;99.90
19279;DHT22;9773;47.062;15.446;2023-05-02T06:29:56;13.30;99.90
19279;DHT22;9773;47.062;15.446;2023-05-02T06:32:22;13.30;99.90
19279;DHT22;9773;47.062;15.446;2023-05-02T06:34:48;13.30;99.90
19279;DHT22;9773;47.062;15.446;2023-05-02T06:37:13;13.20;99.90
19279;DHT22;9773;47.062;15.446;2023-05-02T06:39:39;13.20;99.90
19279;DHT22;9773;47.062;15.446;2023-05-02T06:42:05;13.20;99.90
19279;DHT22;9773;47.062;15.446;2023-05-02T06:44:31;13.20;99.90
19279;DHT22;9773;47.062;15.446;2023-05-02T06:46:57;13.10;99.90
19279;DHT22;9773;47.062;15.446;2023-05-02T06:49:22;13.00;99.90
19279;DHT22;9773;47.062;15.446;2023-05-02T06:51:48;13.00;99.90
19279;DHT22;9773;47.062;15.446;2023-05-02T06:54:16;12.90;99.90
19279;DHT22;9773;47.062;15.446;2023-05-02T06:56:42;12.90;99.90
19279;DHT22;9773;47.062;15.446;2023-05-02T06:59:08;12.90;99.90
19279;DHT22;9773;47.062;15.446;2023-05-02T07:01:33;12.90;99.90
19279;DHT22;9773;47.062;15.446;2023-05-02T07:04:00;12.80;99.90
19279;DHT22;9773;47.062;15.446;2023-05-02T07:06:28;12.80;99.90
19279;DHT22;9773;47.062;15.446;2023-05-02T07:08:54;12.80;99.90
19279;DHT22;9773;47.062;15.446;2023-05-02T07:11:20;12.80;99.90
19279;DHT22;9773;47.062;15.446;2023-05-02T07:13:47;12.80;99.90
19279;DHT22;9773;47.062;15.446;2023-05-02T07:16:13;12.80;99.90
19279;DHT22;9773;47.062;15.446;2023-05-02T07:18:39;12.80;99.90
19279;DHT22;9773;47.062;15.446;2023-05-02T07:21:07;12.90;99.90
19279;DHT22;9773;47.062;15.446;2023-05-02T07:23:33;12.80;99.90
19279;DHT22;9773;47.062;15.446;2023-05-02T07:25:59;12.90;99.90
19279;DHT22;9773;47.062;15.446;2023-05-02T07:28:25;13.00;99.90
19279;DHT22;9773;47.062;15.446;2023-05-02T07:30:50;13.10;99.90
19279;DHT22;9773;47.062;15.446;2023-05-02T07:33:16;13.10;99.90
19279;DHT22;9773;47.062;15.446;2023-05-02T07:35:42;13.20;99.90
19279;DHT22;9773;47.062;15.446;2023-05-02T07:38:08;13.20;99.90
19279;DHT22;9773;47.062;15.446;2023-05-02T07:40:34;13.20;99.90
19279;DHT22;9773;47.062;15.446;2023-05-02T07:43:00;13.30;99.90
19279;DHT22;9773;47.062;15.446;2023-05-02T07:45:26;13.30;99.90
19279;DHT22;9773;47.062;15.446;2023-05-02T07:47:52;13.40;99.90
19279;DHT22;9773;47.062;15.446;2023-05-02T07:50:18;13.40;99.90
19279;DHT22;9773;47.062;15.446;2023-05-02T07:52:43;13.60;99.90
19279;DHT22;9773;47.062;15.446;2023-05-02T07:55:09;13.60;99.90
19279;DHT22;9773;47.062;15.446;2023-05-02T07:57:36;13.70;99.90
19279;DHT22;9773;47.062;15.446;2023-05-02T08:00:03;13.80;99.90
19279;DHT22;9773;47.062;15.446;2023-05-02T08:02:29;13.70;99.90
19279;DHT22;9773;47.062;15.446;2023-05-02T08:04:54;13.80;99.90
19279;DHT22;9773;47.062;15.446;2023-05-02T08:07:20;13.80;99.90
19279;DHT22;9773;47.062;15.446;2023-05-02T08:09:46;13.90;99.90
19279;DHT22;9773;47.062;15.446;2023-05-02T08:12:11;13.80;99.90
19279;DHT22;9773;47.062;15.446;2023-05-02T08:14:37;14.00;99.90
19279;DHT22;9773;47.062;15.446;2023-05-02T08:17:03;14.10;99.90
19279;DHT22;9773;47.062;15.446;2023-05-02T08:19:29;14.10;99.90
19279;DHT22;9773;47.062;15.446;2023-05-02T08:21:54;14.10;99.90
19279;DHT22;9773;47.062;15.446;2023-05-02T08:24:20;14.10;99.90
19279;DHT22;9773;47.062;15.446;2023-05-02T08:26:49;14.00;99.90
19279;DHT22;9773;47.062;15.446;2023-05-02T08:29:15;14.10;99.90
19279;DHT22;9773;47.062;15.446;2023-05-02T08:31:41;14.10;99.90
19279;DHT22;9773;47.062;15.446;2023-05-02T08:34:07;14.10;99.90
19279;DHT22;9773;47.062;15.446;2023-05-02T08:36:33;14.10;99.90
19279;DHT22;9773;47.062;15.446;2023-05-02T08:38:59;14.20;99.90
19279;DHT22;9773;47.062;15.446;2023-05-02T08:41:27;14.30;99.90
19279;DHT22;9773;47.062;15.446;2023-05-02T08:43:53;14.50;99.90
19279;DHT22;9773;47.062;15.446;2023-05-02T08:46:22;14.60;99.90
19279;DHT22;9773;47.062;15.446;2023-05-02T08:48:49;14.60;99.90
19279;DHT22;9773;47.062;15.446;2023-05-02T08:51:16;14.60;99.90
19279;DHT22;9773;47.062;15.446;2023-05-02T08:53:44;14.80;99.90
19279;DHT22;9773;47.062;15.446;2023-05-02T08:56:11;14.80;99.90
19279;DHT22;9773;47.062;15.446;2023-05-02T08:58:39;15.00;99.90
19279;DHT22;9773;47.062;15.446;2023-05-02T09:01:12;15.10;99.90
19279;DHT22;9773;47.062;15.446;2023-05-02T09:03:38;15.30;99.90
19279;DHT22;9773;47.062;15.446;2023-05-02T09:06:08;15.10;99.90
19279;DHT22;9773;47.062;15.446;2023-05-02T09:08:35;15.10;99.90
19279;DHT22;9773;47.062;15.446;2023-05-02T09:11:05;15.10;99.90
19279;DHT22;9773;47.062;15.446;2023-05-02T09:13:45;15.30;99.90
19279;DHT22;9773;47.062;15.446;2023-05-02T09:16:16;15.40;99.90
19279;DHT22;9773;47.062;15.446;2023-05-02T09:18:47;15.30;99.90
19279;DHT22;9773;47.062;15.446;2023-05-02T09:21:34;15.40;99.90
19279;DHT22;9773;47.062;15.446;2023-05-02T09:24:01;15.40;99.90
19279;DHT22;9773;47.062;15.446;2023-05-02T09:26:29;15.30;99.90
19279;DHT22;9773;47.062;15.446;2023-05-02T09:28:57;15.30;99.90
19279;DHT22;9773;47.062;15.446;2023-05-02T09:31:25;15.40;99.90
19279;DHT22;9773;47.062;15.446;2023-05-02T09:33:52;15.40;99.90
19279;DHT22;9773;47.062;15.446;2023-05-02T09:36:19;15.40;99.90
19279;DHT22;9773;47.062;15.446;2023-05-02T09:38:47;15.40;99.90
19279;DHT22;9773;47.062;15.446;2023-05-02T09:41:13;15.50;99.90
19279;DHT22;9773;47.062;15.446;2023-05-02T09:43:39;15.50;99.90
19279;DHT22;9773;47.062;15.446;2023-05-02T09:46:07;15.60;99.90
19279;DHT22;9773;47.062;15.446;2023-05-02T09:49:02;15.60;99.90
19279;DHT22;9773;47.062;15.446;2023-05-02T09:51:30;15.70;99.90
19279;DHT22;9773;47.062;15.446;2023-05-02T09:53:56;15.80;99.90
19279;DHT22;9773;47.062;15.446;2023-05-02T09:56:22;15.70;99.90
19279;DHT22;9773;47.062;15.446;2023-05-02T09:58:50;15.90;99.90
19279;DHT22;9773;47.062;15.446;2023-05-02T10:01:17;15.90;99.90
19279;DHT22;9773;47.062;15.446;2023-05-02T10:03:47;16.00;99.90
19279;DHT22;9773;47.062;15.446;2023-05-02T10:06:14;16.00;99.90
19279;DHT22;9773;47.062;15.446;2023-05-02T10:08:41;16.00;99.90
19279;DHT22;9773;47.062;15.446;2023-05-02T10:11:09;16.10;99.90
19279;DHT22;9773;47.062;15.446;2023-05-02T10:13:37;16.00;99.90
19279;DHT22;9773;47.062;15.446;2023-05-02T10:16:05;16.10;99.90
19279;DHT22;9773;47.062;15.446;2023-05-02T10:18:47;15.90;99.90
19279;DHT22;9773;47.062;15.446;2023-05-02T10:21:16;15.80;99.90
19279;DHT22;9773;47.062;15.446;2023-05-02T10:23:44;15.80;99.90
19279;DHT22;9773;47.062;15.446;2023-05-02T10:26:15;16.00;99.90
19279;DHT22;9773;47.062;15.446;2023-05-02T10:28:43;16.00;99.90
19279;DHT22;9773;47.062;15.446;2023-05-02T10:31:10;16.10;99.90
19279;DHT22;9773;47.062;15.446;2023-05-02T10:33:38;16.10;99.90
19279;DHT22;9773;47.062;15.446;2023-05-02T10:36:05;16.20;99.90
19279;DHT22;9773;47.062;15.446;2023-05-02T10:38:31;16.20;99.90
19279;DHT22;9773;47.062;15.446;2023-05-02T10:41:04;16.20;99.90
19279;DHT22;9773;47.062;15.446;2023-05-02T10:43:33;16.30;99.90
19279;DHT22;9773;47.062;15.446;2023-05-02T10:46:00;16.30;99.90
19279;DHT22;9773;47.062;15.446;2023-05-02T10:48:28;16.30;99.90
19279;DHT22;9773;47.062;15.446;2023-05-02T10:50:55;16.30;99.90
19279;DHT22;9773;47.062;15.446;2023-05-02T10:53:28;16.10;99.90
19279;DHT22;9773;47.062;15.446;2023-05-02T10:58:40;16.00;99.90
19279;DHT22;9773;47.062;15.446;2023-05-02T11:03:57;15.80;99.90
19279;DHT22;9773;47.062;15.446;2023-05-02T11:06:28;15.70;99.90
19279;DHT22;9773;47.062;15.446;2023-05-02T11:11:45;15.70;99.90
19279;DHT22;9773;47.062;15.446;2023-05-02T11:20:17;15.50;99.90
19279;DHT22;9773;47.062;15.446;2023-05-02T11:24:46;15.40;99.90
19279;DHT22;9773;47.062;15.446;2023-05-02T11:30:07;15.60;99.90
19279;DHT22;9773;47.062;15.446;2023-05-02T11:35:24;15.40;99.90
19279;DHT22;9773;47.062;15.446;2023-05-02T11:37:59;15.40;99.90
19279;DHT22;9773;47.062;15.446;2023-05-02T11:40:27;15.40;99.90
19279;DHT22;9773;47.062;15.446;2023-05-02T11:42:53;15.30;99.90
19279;DHT22;9773;47.062;15.446;2023-05-02T11:45:19;15.30;99.90
19279;DHT22;9773;47.062;15.446;2023-05-02T11:47:50;15.20;99.90
19279;DHT22;9773;47.062;15.446;2023-05-02T11:50:16;15.20;99.90
19279;DHT22;9773;47.062;15.446;2023-05-02T11:52:43;15.30;99.90
19279;DHT22;9773;47.062;15.446;2023-05-02T11:55:11;15.30;99.90
19279;DHT22;9773;47.062;15.446;2023-05-02T11:57:37;15.30;99.90
19279;DHT22;9773;47.062;15.446;2023-05-02T12:00:04;15.40;99.90
19279;DHT22;9773;47.062;15.446;2023-05-02T12:02:41;15.50;99.90
19279;DHT22;9773;47.062;15.446;2023-05-02T12:05:11;15.50;99.90
19279;DHT22;9773;47.062;15.446;2023-05-02T12:07:42;15.50;99.90
19279;DHT22;9773;47.062;15.446;2023-05-02T12:10:09;15.50;99.90
19279;DHT22;9773;47.062;15.446;2023-05-02T12:12:36;15.50;99.90
19279;DHT22;9773;47.062;15.446;2023-05-02T12:15:07;15.50;99.90
19279;DHT22;9773;47.062;15.446;2023-05-02T12:17:38;15.30;99.90
19279;DHT22;9773;47.062;15.446;2023-05-02T12:20:06;15.20;99.90
19279;DHT22;9773;47.062;15.446;2023-05-02T12:22:32;15.10;99.90
19279;DHT22;9773;47.062;15.446;2023-05-02T12:24:58;15.10;99.90
19279;DHT22;9773;47.062;15.446;2023-05-02T12:27:24;15.10;99.90
19279;DHT22;9773;47.062;15.446;2023-05-02T12:29:50;15.10;99.90
19279;DHT22;9773;47.062;15.446;2023-05-02T12:32:30;15.10;99.90
19279;DHT22;9773;47.062;15.446;2023-05-02T12:34:57;14.90;99.90
19279;DHT22;9773;47.062;15.446;2023-05-02T12:37:26;14.80;99.90
19279;DHT22;9773;47.062;15.446;2023-05-02T12:39:52;14.80;99.90
19279;DHT22;9773;47.062;15.446;2023-05-02T12:42:23;14.70;99.90
19279;DHT22;9773;47.062;15.446;2023-05-02T12:44:50;14.50;99.90
19279;DHT22;9773;47.062;15.446;2023-05-02T12:47:21;14.40;99.90
19279;DHT22;9773;47.062;15.446;2023-05-02T12:50:07;14.30;99.90
19279;DHT22;9773;47.062;15.446;2023-05-02T12:55:29;14.10;99.90
19279;DHT22;9773;47.062;15.446;2023-05-02T13:00:25;14.00;99.90
19279;DHT22;9773;47.062;15.446;2023-05-02T13:02:51;14.00;99.90
19279;DHT22;9773;47.062;15.446;2023-05-02T13:05:18;13.90;99.90
19279;DHT22;9773;47.062;15.446;2023-05-02T13:07:44;13.70;99.90
19279;DHT22;9773;47.062;15.446;2023-05-02T13:10:10;13.60;99.90
19279;DHT22;9773;47.062;15.446;2023-05-02T13:12:38;13.50;99.90
19279;DHT22;9773;47.062;15.446;2023-05-02T13:15:04;13.40;99.90
19279;DHT22;9773;47.062;15.446;2023-05-02T13:17:31;13.40;99.90
19279;DHT22;9773;47.062;15.446;2023-05-02T13:19:57;13.40;99.90
19279;DHT22;9773;47.062;15.446;2023-05-02T13:22:23;13.40;99.90
19279;DHT22;9773;47.062;15.446;2023-05-02T13:24:50;13.40;99.90
19279;DHT22;9773;47.062;15.446;2023-05-02T13:27:16;13.30;99.90
19279;DHT22;9773;47.062;15.446;2023-05-02T13:29:45;13.30;99.90
19279;DHT22;9773;47.062;15.446;2023-05-02T13:32:11;13.30;99.90
19279;DHT22;9773;47.062;15.446;2023-05-02T13:34:37;13.30;99.90
19279;DHT22;9773;47.062;15.446;2023-05-02T13:37:02;13.30;99.90
19279;DHT22;9773;47.062;15.446;2023-05-02T13:39:28;13.30;99.90
19279;DHT22;9773;47.062;15.446;2023-05-02T13:41:54;13.20;99.90
19279;DHT22;9773;47.062;15.446;2023-05-02T13:44:20;13.20;99.90
19279;DHT22;9773;47.062;15.446;2023-05-02T13:46:45;13.20;99.90
19279;DHT22;9773;47.062;15.446;2023-05-02T13:49:12;13.30;99.90
19279;DHT22;9773;47.062;15.446;2023-05-02T13:51:38;13.30;99.90
19279;DHT22;9773;47.062;15.446;2023-05-02T13:54:04;13.30;99.90
19279;DHT22;9773;47.062;15.446;2023-05-02T13:56:29;13.30;99.90
19279;DHT22;9773;47.062;15.446;2023-05-02T13:58:55;13.30;99.90
19279;DHT22;9773;47.062;15.446;2023-05-02T14:01:21;13.20;99.90
19279;DHT22;9773;47.062;15.446;2023-05-02T14:03:47;13.20;99.90
19279;DHT22;9773;47.062;15.446;2023-05-02T14:06:13;13.20;99.90
19279;DHT22;9773;47.062;15.446;2023-05-02T14:08:38;13.20;99.90
19279;DHT22;9773;47.062;15.446;2023-05-02T14:11:04;13.20;99.90
19279;DHT22;9773;47.062;15.446;2023-05-02T14:13:30;13.20;99.90
19279;DHT22;9773;47.062;15.446;2023-05-02T14:15:56;13.30;99.90
19279;DHT22;9773;47.062;15.446;2023-05-02T14:18:23;13.30;99.90
19279;DHT22;9773;47.062;15.446;2023-05-02T14:20:48;13.20;99.90
19279;DHT22;9773;47.062;15.446;2023-05-02T14:23:14;13.10;99.90
19279;DHT22;9773;47.062;15.446;2023-05-02T14:25:40;13.20;99.90
19279;DHT22;9773;47.062;15.446;2023-05-02T14:28:06;13.10;99.90
19279;DHT22;9773;47.062;15.446;2023-05-02T14:30:32;13.00;99.90
19279;DHT22;9773;47.062;15.446;2023-05-02T14:32:58;13.10;99.90
19279;DHT22;9773;47.062;15.446;2023-05-02T14:35:24;13.10;99.90
19279;DHT22;9773;47.062;15.446;2023-05-02T14:37:50;13.10;99.90
19279;DHT22;9773;47.062;15.446;2023-05-02T14:40:15;13.20;99.90
19279;DHT22;9773;47.062;15.446;2023-05-02T14:42:42;13.10;99.90
19279;DHT22;9773;47.062;15.446;2023-05-02T14:45:08;13.20;99.90
19279;DHT22;9773;47.062;15.446;2023-05-02T14:47:34;13.20;99.90
19279;DHT22;9773;47.062;15.446;2023-05-02T14:50:02;13.20;99.90
19279;DHT22;9773;47.062;15.446;2023-05-02T14:52:28;13.10;99.90
19279;DHT22;9773;47.062;15.446;2023-05-02T14:54:54;13.20;99.90
19279;DHT22;9773;47.062;15.446;2023-05-02T14:57:19;13.10;99.90
19279;DHT22;9773;47.062;15.446;2023-05-02T14:59:46;13.20;99.90
19279;DHT22;9773;47.062;15.446;2023-05-02T15:02:11;13.20;99.90
19279;DHT22;9773;47.062;15.446;2023-05-02T15:04:37;13.10;99.90
19279;DHT22;9773;47.062;15.446;2023-05-02T15:07:03;13.20;99.90
19279;DHT22;9773;47.062;15.446;2023-05-02T15:09:29;13.10;99.90
19279;DHT22;9773;47.062;15.446;2023-05-02T15:11:55;13.10;99.90
19279;DHT22;9773;47.062;15.446;2023-05-02T15:14:21;13.10;99.90
19279;DHT22;9773;47.062;15.446;2023-05-02T15:16:47;13.10;99.90
19279;DHT22;9773;47.062;15.446;2023-05-02T15:19:13;13.10;99.90
19279;DHT22;9773;47.062;15.446;2023-05-02T15:21:38;13.10;99.90
19279;DHT22;9773;47.062;15.446;2023-05-02T15:24:04;13.10;99.90
19279;DHT22;9773;47.062;15.446;2023-05-02T15:26:31;13.10;99.90
19279;DHT22;9773;47.062;15.446;2023-05-02T15:28:57;13.10;99.90
19279;DHT22;9773;47.062;15.446;2023-05-02T15:31:23;13.10;99.90
19279;DHT22;9773;47.062;15.446;2023-05-02T15:33:49;13.10;99.90
19279;DHT22;9773;47.062;15.446;2023-05-02T15:36:15;13.10;99.90
19279;DHT22;9773;47.062;15.446;2023-05-02T15:38:41;13.00;99.90
19279;DHT22;9773;47.062;15.446;2023-05-02T15:41:08;13.00;99.90
19279;DHT22;9773;47.062;15.446;2023-05-02T15:43:35;12.90;99.90
19279;DHT22;9773;47.062;15.446;2023-05-02T15:46:01;13.00;99.90
19279;DHT22;9773;47.062;15.446;2023-05-02T15:48:28;12.90;99.90
19279;DHT22;9773;47.062;15.446;2023-05-02T15:50:55;12.90;99.90
19279;DHT22;9773;47.062;15.446;2023-05-02T15:53:21;12.90;99.90
19279;DHT22;9773;47.062;15.446;2023-05-02T15:55:52;12.90;99.90
19279;DHT22;9773;47.062;15.446;2023-05-02T15:58:18;12.90;99.90
19279;DHT22;9773;47.062;15.446;2023-05-02T16:00:44;12.80;99.90
19279;DHT22;9773;47.062;15.446;2023-05-02T16:03:11;12.80;99.90
19279;DHT22;9773;47.062;15.446;2023-05-02T16:05:37;12.80;99.90
19279;DHT22;9773;47.062;15.446;2023-05-02T16:08:03;12.80;99.90
19279;DHT22;9773;47.062;15.446;2023-05-02T16:10:29;12.90;99.90
19279;DHT22;9773;47.062;15.446;2023-05-02T16:12:55;12.90;99.90
19279;DHT22;9773;47.062;15.446;2023-05-02T16:15:21;12.90;99.90